Hlavní strana
METAR-TAF:

METAR-TAF

Letiště :

Kuantan, Malajsie

zeměpisná šířka: 03-37N, zeměpisná délka: 103-13E, výška: 18 m

Aktuální stav počasí

Zpráva byla vytvořena před 1 hodinou a 8 minutami, v 11:00 UTC
Východní vítr 3 kt, proměnlivý mezi severoseverovýchodním a jihojihovýchodním
Teplota 30°C
Vlhkost vzduchu 84%
Tlak 1009 hPa
Viditelnost 10 km a více
Skoro jasno ve výšce 2000 ft

METAR: WMKD 081100Z 09003KT 020V150 9999 FEW020 30/27 Q1009 NOSIG

Čas: 20:08 (12:08 UTC)


TAF: chybějící

Stav a předpovědi počasí z více než 4 000 letišť (zprávy METAR a TAF).

Červené a žluté tečky na mapě představují dostupné meteorologické stanice.

Když kurzor umístíte na tečku, zobrazí se název stanice.

Pak kliknutím zobrazíte stav a předpověď počasí.

Chcete-li změnit mapu, kliknutím na zelené tlačítko se znaménkem +mapu přiblížíte, kliknutím na zelené tlačítko se znaménkem – mapu oddálíte a kliknutím na zelené šipky přejdete na sousední mapy.


METAR-TAF: